Domov               UVHVVR             MKGP            O straneh              
ZDRAVSTVENO VARSTVO RASTLIN
  MREŽA AGROMET. POSTAJ
 ► PROGNOSTIČNA OBVESTILA
AGROMETEOROLOŠKI PODATKI -
ARSO
OBVLADOVANJE TVEGANJ ZARADI
NEUGODNIH VREMENSKIH RAZMER
  ► NARAVNE NESREČE
  ► SUŠA/MOČA
  ► NAMAKANJE
  ► ŽLED (gozdarstvo)
KARTOGRAFSKI PRIKAZI
SPLETNE POVEZAVE
PROJEKTI IN PUBLIKACIJE

AGROMETEOROLOŠKA MREŽA: VREMENSKE POSTAJE IN FENOLOŠKA OPAZOVANJA

Pregled podatkov za lokacijo Pradisiol, meteorološka postaja 861649

Pregled senzorjev na lokaciji

ID Ime Zadnja
vrednost
Datum
zadnje
spremembe
Tip
senzorja
4074 Temperatura 2 m ( °C) 17,45 °C 26.6.2017 00:00 50YA
4075 Relativna vlaga 2 m (% RH) 97,88 % RH 26.6.2017 00:00 50YA
4076 Omočenost lista (U) 10 U 26.6.2017 00:00 A730WET
4077 Padavine 0.2 mm (mm) 0 mm 26.6.2017 00:00 Rain-O-Matic

Pregled podatkov zadnjih 24 ur

Zap.
št.
Datum in čas Pradisiol
Omočenost
lista
Padavine
0.2
mm
Relativna
vlaga
2
m
Temperatura
2
m
0 25.6.2017 23:00 10 0 97,88 17,45
1 25.6.2017 22:30 10 0 97,5 17,6
2 25.6.2017 22:00 10 0 97,09 17,84
3 25.6.2017 21:30 10 0 96,48 18,17
4 25.6.2017 21:00 10 0 95,8 18,68
5 25.6.2017 20:30 10 0 94,56 19,53
6 25.6.2017 20:00 10 0 93,22 20,34
7 25.6.2017 19:30 10 0 92,97 20,61
8 25.6.2017 19:00 10 0 94,8 20,58
9 25.6.2017 18:30 9 0 96,87 20
10 25.6.2017 18:00 10 0 95,96 18,92
11 25.6.2017 17:30 10 2,4 96,98 18,75
12 25.6.2017 17:00 10 17,2 96,32 20,67
13 25.6.2017 16:30 10 10,2 91,19 22,75
14 25.6.2017 16:00 10 1,4 88,1 24,37
15 25.6.2017 15:30 9 0,2 72,62 26,41
16 25.6.2017 15:00 2 0 66,97 27,37
17 25.6.2017 14:30 0 0 59,62 29,26
18 25.6.2017 14:00 0 0 56,64 30,46
19 25.6.2017 13:30 0 0 55,33 30,89
20 25.6.2017 13:00 0 0 58,09 29,57
21 25.6.2017 12:30 0 0 60,56 27,79
22 25.6.2017 12:00 0 0 62,74 26,19
23 25.6.2017 11:30 0 0 64,67 25,19
24 25.6.2017 11:00 0 0 57,89 28,33
25 25.6.2017 10:30 0 0 51,13 29,85
26 25.6.2017 10:00 0 0 52,24 30,51
27 25.6.2017 09:30 0 0 54,29 30,53
28 25.6.2017 09:00 0 0 54,34 30,25
29 25.6.2017 08:30 0 0 53,35 30,62
30 25.6.2017 08:00 0 0 53,75 29,76
31 25.6.2017 07:30 0 0 53,89 28,9
32 25.6.2017 07:00 2 0 67,8 26,36
33 25.6.2017 06:30 10 0 77,64 23,72
34 25.6.2017 06:00 10 0 86,31 21,89
35 25.6.2017 05:30 10 0 88 21,31
36 25.6.2017 05:00 10 0 91,39 20,51
37 25.6.2017 04:30 10 0 92,28 20,43
38 25.6.2017 04:00 10 0 92,97 20,55
39 25.6.2017 03:30 10 0 91,82 21,16
40 25.6.2017 03:00 10 0 90,5 21,99
41 25.6.2017 02:30 10 0 90,29 22,13
42 25.6.2017 02:00 10 0 91,47 21,87
43 25.6.2017 01:30 10 0 92,52 21,3
44 25.6.2017 01:00 10 0 92,26 21,28
© 2011 Ministrstvo za kmetijstvo, gozdarstvo in prehrano. Vse pravice pridržane.